createdAt,value
2018-12-20T00:00:34.217Z,102104.36
2018-12-20T00:03:03.169Z,102109.53
2018-12-20T00:05:31.549Z,102106.05
2018-12-20T00:08:00.263Z,102114.20
2018-12-20T00:10:29.505Z,102104.87
2018-12-20T00:12:58.052Z,102102.94
2018-12-20T00:15:26.605Z,102103.06
2018-12-20T00:17:55.577Z,102106.16
2018-12-20T00:20:24.328Z,102108.76
2018-12-20T00:22:52.752Z,102109.27
2018-12-20T00:25:21.363Z,102103.19
2018-12-20T00:27:49.921Z,102106.68
2018-12-20T00:30:19.237Z,102104.61
2018-12-20T00:32:47.808Z,102111.59
2018-12-20T00:35:16.394Z,102109.39
2018-12-20T00:37:47.346Z,102115.08
2018-12-20T00:40:16.424Z,101980.81
2018-12-20T00:42:45.029Z,102114.18
2018-12-20T00:45:13.537Z,102114.57
2018-12-20T00:47:42.196Z,102117.28
2018-12-20T00:50:10.690Z,102121.16
2018-12-20T00:52:39.277Z,102120.38
2018-12-20T00:55:08.241Z,102125.56
2018-12-20T00:57:36.744Z,102116.11
2018-12-20T01:00:08.242Z,102120.90
2018-12-20T01:02:37.474Z,102122.59
2018-12-20T01:05:06.481Z,102125.44
2018-12-20T01:07:35.053Z,102133.84
2018-12-20T01:10:04.119Z,102134.63
2018-12-20T01:12:32.520Z,102129.05
2018-12-20T01:15:01.152Z,102134.36
2018-12-20T01:17:34.141Z,102136.56
2018-12-20T01:20:02.712Z,102130.47
2018-12-20T01:22:31.088Z,102137.34
2018-12-20T01:24:59.881Z,102136.05
2018-12-20T01:27:28.450Z,102103.64
2018-12-20T01:29:56.938Z,102135.02
2018-12-20T01:32:25.568Z,102091.23
2018-12-20T01:34:54.200Z,102126.86
2018-12-20T01:37:22.811Z,102139.02
2018-12-20T01:39:51.407Z,102138.12
2018-12-20T01:42:20.062Z,102131.65
2018-12-20T01:44:53.487Z,102139.02
2018-12-20T01:47:19.696Z,102139.41
2018-12-20T01:49:48.427Z,102134.50
2018-12-20T01:52:16.938Z,102140.59
2018-12-20T01:54:45.963Z,102133.59
2018-12-20T01:57:14.554Z,102138.38
2018-12-20T01:59:43.083Z,102137.48
2018-12-20T02:02:12.049Z,102147.45
2018-12-20T02:04:40.634Z,102147.45
2018-12-20T02:07:12.471Z,102144.34
2018-12-20T02:09:41.082Z,102146.94
2018-12-20T02:12:09.508Z,102142.14
2018-12-20T02:14:38.291Z,102147.71
2018-12-20T02:17:06.982Z,102143.31
2018-12-20T02:19:35.433Z,102143.19
2018-12-20T02:22:04.070Z,102150.18
2018-12-20T02:24:32.635Z,102154.33
2018-12-20T02:27:01.211Z,102149.66
2018-12-20T02:29:30.404Z,102146.56
2018-12-20T02:32:01.177Z,102143.58
2018-12-20T02:34:29.811Z,102144.75
2018-12-20T02:36:58.421Z,102152.52
2018-12-20T02:39:26.983Z,102150.59
2018-12-20T02:41:55.412Z,102148.39
2018-12-20T02:44:23.994Z,102148.27
2018-12-20T02:46:52.547Z,102154.34
2018-12-20T02:49:21.206Z,102149.82
2018-12-20T02:51:50.135Z,102149.43
2018-12-20T02:54:18.904Z,102147.63
2018-12-20T02:56:47.924Z,102148.41
2018-12-20T02:59:17.012Z,102149.19
2018-12-20T03:01:45.805Z,102143.88
2018-12-20T03:04:14.416Z,102142.98
2018-12-20T03:06:43.027Z,102150.73
2018-12-20T03:09:11.621Z,102140.78
2018-12-20T03:11:40.062Z,102142.34
2018-12-20T03:14:09.107Z,102136.77
2018-12-20T03:16:37.898Z,102145.05
2018-12-20T03:19:06.673Z,102148.42
2018-12-20T03:21:36.118Z,102146.34
2018-12-20T03:24:04.795Z,102141.83
2018-12-20T03:26:33.271Z,102140.02
2018-12-20T03:29:01.854Z,102146.36
2018-12-20T03:31:30.488Z,102149.34
2018-12-20T03:33:59.234Z,102149.34
2018-12-20T03:36:27.913Z,102148.95
2018-12-20T03:38:56.819Z,102146.62
2018-12-20T03:41:25.396Z,102145.20
2018-12-20T03:43:54.078Z,102140.80
2018-12-20T03:46:22.760Z,102149.34
2018-12-20T03:48:51.824Z,102151.03
2018-12-20T03:51:20.624Z,102154.39
2018-12-20T03:53:49.640Z,102155.05
2018-12-20T03:56:18.575Z,102161.12
2018-12-20T03:58:47.630Z,102159.59
2018-12-20T04:01:16.168Z,102160.88
2018-12-20T04:03:44.581Z,102159.97
2018-12-20T04:06:14.261Z,102159.97
2018-12-20T04:08:43.033Z,102159.33
2018-12-20T04:11:11.476Z,102154.42
2018-12-20T04:13:40.104Z,102162.95
2018-12-20T04:16:08.514Z,102161.80
2018-12-20T04:18:37.117Z,102167.23
2018-12-20T04:21:05.979Z,102169.05
2018-12-20T04:23:41.410Z,102166.72
2018-12-20T04:26:10.859Z,102163.88
2018-12-20T04:28:39.364Z,102156.00
2018-12-20T04:31:07.867Z,102163.24
2018-12-20T04:33:36.669Z,102152.37
2018-12-20T04:36:05.190Z,102159.75
2018-12-20T04:38:33.742Z,102162.98
2018-12-20T04:41:02.690Z,102162.21
2018-12-20T04:43:31.325Z,102171.00
2018-12-20T04:46:00.722Z,102156.52
2018-12-20T04:48:29.626Z,102163.38
2018-12-20T04:50:58.652Z,102161.05
2018-12-20T04:53:27.548Z,102170.48
2018-12-20T04:55:56.642Z,102164.28
2018-12-20T04:58:25.222Z,102156.39
2018-12-20T05:00:54.397Z,102175.02
2018-12-20T05:03:23.107Z,102164.93
2018-12-20T05:05:51.637Z,102165.70
2018-12-20T05:08:20.267Z,102156.91
2018-12-20T05:10:55.801Z,102162.86
2018-12-20T05:13:24.977Z,102150.71
2018-12-20T05:15:56.464Z,102151.87
2018-12-20T05:18:25.163Z,102153.17
2018-12-20T05:20:53.561Z,102151.09
2018-12-20T05:23:22.089Z,102149.80
2018-12-20T05:25:50.699Z,102153.17
2018-12-20T05:28:19.421Z,102162.22
2018-12-20T05:30:48.011Z,102144.38
2018-12-20T05:33:16.812Z,102146.83
2018-12-20T05:35:45.292Z,102146.44
2018-12-20T05:38:13.748Z,102156.27
2018-12-20T05:40:43.060Z,102149.29
2018-12-20T05:43:11.979Z,102156.91
2018-12-20T05:45:40.637Z,102156.91
2018-12-20T05:48:09.715Z,102149.55
2018-12-20T05:50:38.140Z,102161.56
2018-12-20T05:53:06.637Z,102161.44
2018-12-20T05:55:35.448Z,102165.57
2018-12-20T05:58:03.921Z,102158.46
2018-12-20T06:00:32.410Z,102128.08
2018-12-20T06:03:01.254Z,102166.86
2018-12-20T06:05:29.652Z,102167.11
2018-12-20T06:07:58.193Z,102165.56
2018-12-20T06:10:27.222Z,102168.41
2018-12-20T06:13:00.650Z,102157.94
2018-12-20T06:15:29.904Z,102162.72
2018-12-20T06:17:58.542Z,102170.72
2018-12-20T06:20:27.518Z,102171.50
2018-12-20T06:22:56.253Z,102166.59
2018-12-20T06:25:24.633Z,102168.14
2018-12-20T06:27:53.231Z,102159.34
2018-12-20T06:30:21.960Z,102166.97
2018-12-20T06:32:50.353Z,102159.86
2018-12-20T06:35:18.871Z,102164.12
2018-12-20T06:37:47.771Z,102166.19
2018-12-20T06:40:16.476Z,102163.08
2018-12-20T06:42:45.292Z,102159.20
2018-12-20T06:45:14.406Z,102158.30
2018-12-20T06:47:43.073Z,102163.72
2018-12-20T06:50:11.498Z,102163.20
2018-12-20T06:52:40.033Z,102166.56
2018-12-20T06:55:08.729Z,102167.98
2018-12-20T06:57:37.102Z,102176.13
2018-12-20T07:00:06.783Z,102169.14
2018-12-20T07:02:35.157Z,102163.71
2018-12-20T07:05:03.645Z,102163.97
2018-12-20T07:07:32.546Z,102167.32
2018-12-20T07:10:00.914Z,102171.58
2018-12-20T07:12:29.317Z,102164.73
2018-12-20T07:14:57.846Z,102165.26
2018-12-20T07:17:26.257Z,102166.94
2018-12-20T07:19:54.640Z,102166.94
2018-12-20T07:22:29.942Z,102168.11
2018-12-20T07:24:58.344Z,102168.63
2018-12-20T07:27:27.734Z,102164.88
2018-12-20T07:29:56.610Z,102171.08
2018-12-20T07:32:25.582Z,102176.37
2018-12-20T07:34:54.106Z,102167.20
2018-12-20T07:37:24.392Z,102172.88
2018-12-20T07:39:53.228Z,102172.63
2018-12-20T07:42:21.620Z,102171.47
2018-12-20T07:44:50.567Z,102169.14
2018-12-20T07:47:19.085Z,102165.66
2018-12-20T07:49:47.483Z,102163.20
2018-12-20T07:52:16.880Z,102171.99
2018-12-20T07:54:45.414Z,102166.30
2018-12-20T07:57:13.900Z,102173.28
2018-12-20T07:59:42.679Z,102167.73
2018-12-20T08:02:11.153Z,102171.99
2018-12-20T08:04:39.548Z,102160.62
2018-12-20T08:07:08.427Z,102172.37
2018-12-20T08:09:36.810Z,102177.93
2018-12-20T08:12:05.535Z,102178.45
2018-12-20T08:14:34.086Z,102176.25
2018-12-20T08:17:02.944Z,102171.73
2018-12-20T08:19:36.280Z,102180.00
2018-12-20T08:22:02.680Z,102179.23
2018-12-20T08:24:31.097Z,102180.91
2018-12-20T08:26:59.670Z,102188.41
2018-12-20T08:29:29.653Z,102186.97
2018-12-20T08:31:58.090Z,102190.85
2018-12-20T08:34:26.654Z,102189.42
2018-12-20T08:36:55.400Z,102191.88
2018-12-20T08:39:23.876Z,102196.14
2018-12-20T08:41:52.298Z,102203.89
2018-12-20T08:44:21.096Z,102190.59
2018-12-20T08:46:54.308Z,102192.38
2018-12-20T08:49:19.929Z,102188.76
2018-12-20T08:51:49.185Z,102185.66
2018-12-20T08:54:17.916Z,102186.95
2018-12-20T08:56:46.337Z,102199.48
2018-12-20T08:59:15.377Z,102182.94
2018-12-20T09:01:43.971Z,102190.83
2018-12-20T09:04:12.598Z,102198.05
2018-12-20T09:06:41.421Z,102191.84
2018-12-20T09:09:09.937Z,102186.94
2018-12-20T09:11:38.328Z,102188.61
2018-12-20T09:14:07.164Z,102191.20
2018-12-20T09:16:35.550Z,102184.35
2018-12-20T09:19:04.007Z,101998.18
2018-12-20T09:21:32.657Z,102188.63
2018-12-20T09:24:01.174Z,102181.78
2018-12-20T09:26:29.572Z,102187.34
2018-12-20T09:28:58.208Z,102187.20
2018-12-20T09:31:26.612Z,102185.26
2018-12-20T09:33:55.050Z,102176.08
2018-12-20T09:36:23.678Z,102179.82
2018-12-20T09:38:58.673Z,102184.60
2018-12-20T09:41:27.690Z,102190.02
2018-12-20T09:43:56.108Z,102178.66
2018-12-20T09:46:24.510Z,102179.42
2018-12-20T09:48:53.396Z,102183.05
2018-12-20T09:51:22.856Z,102182.66
2018-12-20T09:53:51.257Z,102181.50
2018-12-20T09:56:20.662Z,102180.33
2018-12-20T09:58:49.670Z,102178.38
2018-12-20T10:01:18.216Z,102176.84
2018-12-20T10:03:46.664Z,102176.32
2018-12-20T10:06:15.299Z,102171.41
2018-12-20T10:08:43.847Z,102168.05
2018-12-20T10:11:12.383Z,102171.41
2018-12-20T10:13:40.891Z,102162.63
2018-12-20T10:16:09.315Z,102162.10
2018-12-20T10:18:38.029Z,102169.84
2018-12-20T10:21:06.696Z,102165.97
2018-12-20T10:23:35.081Z,102154.35
2018-12-20T10:26:03.645Z,102159.52
2018-12-20T10:28:32.407Z,102161.84
2018-12-20T10:31:00.818Z,102150.49
2018-12-20T10:33:29.258Z,102153.97
2018-12-20T10:35:58.159Z,102144.66
2018-12-20T10:38:26.572Z,102145.44
2018-12-20T10:40:55.121Z,102143.38
2018-12-20T10:43:24.457Z,102148.53
2018-12-20T10:45:52.849Z,102134.85
2018-12-20T10:48:21.306Z,102141.95
2018-12-20T10:50:50.267Z,102142.45
2018-12-20T10:53:18.661Z,102138.58
2018-12-20T10:55:47.380Z,102132.64
2018-12-20T10:58:15.889Z,102087.66
2018-12-20T11:00:49.603Z,102130.19
2018-12-20T11:03:23.470Z,102131.09
2018-12-20T11:06:12.073Z,102130.71
2018-12-20T11:08:45.121Z,102129.28
2018-12-20T11:11:17.812Z,102127.20
2018-12-20T11:13:47.088Z,102121.66
2018-12-20T11:16:15.529Z,102130.06
2018-12-20T11:18:44.069Z,102121.80
2018-12-20T11:21:12.830Z,102114.44
2018-12-20T11:23:41.326Z,102124.87
2018-12-20T11:26:09.821Z,102118.30
2018-12-20T11:28:38.649Z,102113.27
2018-12-20T11:31:07.161Z,102119.59
2018-12-20T11:33:36.328Z,102111.59
2018-12-20T11:36:04.959Z,102114.18
2018-12-20T11:38:33.439Z,102108.11
2018-12-20T11:41:02.449Z,102106.95
2018-12-20T11:43:37.746Z,102107.34
2018-12-20T11:46:06.422Z,102102.17
2018-12-20T11:48:34.837Z,102103.98
2018-12-20T11:51:03.433Z,102093.78
2018-12-20T11:53:31.841Z,102094.30
2018-12-20T11:56:00.493Z,102091.31
2018-12-20T11:58:29.628Z,102089.89
2018-12-20T12:00:58.077Z,102083.83
2018-12-20T12:03:26.896Z,102088.22
2018-12-20T12:05:55.668Z,102077.37
2018-12-20T12:08:24.101Z,102073.88
2018-12-20T12:10:52.521Z,102069.23
2018-12-20T12:13:21.433Z,102073.23
2018-12-20T12:15:49.912Z,102084.08
2018-12-20T12:18:18.313Z,102078.14
2018-12-20T12:20:47.488Z,102076.20
2018-12-20T12:23:15.925Z,102074.00
2018-12-20T12:25:44.426Z,102070.13
2018-12-20T12:28:13.584Z,102068.20
2018-12-20T12:30:42.038Z,102066.78
2018-12-20T12:33:10.460Z,102071.05
2018-12-20T12:35:38.983Z,102069.48
2018-12-20T12:38:07.530Z,102067.42
2018-12-20T12:40:35.956Z,102066.66
2018-12-20T12:43:04.464Z,102061.10
2018-12-20T12:45:32.876Z,102061.48
2018-12-20T12:48:03.626Z,102064.84
2018-12-20T12:50:32.377Z,102062.12
2018-12-20T12:53:00.873Z,102062.91
2018-12-20T12:55:29.300Z,102061.23
2018-12-20T12:58:04.694Z,102069.88
2018-12-20T13:00:28.666Z,102061.36
2018-12-20T13:02:57.220Z,102060.59
2018-12-20T13:05:25.909Z,102063.30
2018-12-20T13:07:54.368Z,102060.98
2018-12-20T13:10:22.813Z,102066.80
2018-12-20T13:12:51.422Z,102062.27
2018-12-20T13:15:19.918Z,102061.75
2018-12-20T13:17:48.502Z,102055.03
2018-12-20T13:20:17.425Z,102059.16
2018-12-20T13:22:47.046Z,102054.25
2018-12-20T13:25:15.492Z,101909.47
2018-12-20T13:27:43.995Z,102055.93
2018-12-20T13:30:13.321Z,102051.16
2018-12-20T13:32:41.761Z,102054.25
2018-12-20T13:35:10.376Z,102054.38
2018-12-20T13:37:38.902Z,102054.77
2018-12-20T13:40:07.329Z,102046.24
2018-12-20T13:42:36.192Z,102045.47
2018-12-20T13:45:05.264Z,102045.60
2018-12-20T13:47:33.661Z,102040.05
2018-12-20T13:50:02.665Z,102046.13
2018-12-20T13:52:32.987Z,102039.28
2018-12-20T13:55:01.425Z,102041.34
2018-12-20T13:57:29.947Z,102037.09
2018-12-20T13:59:58.556Z,102037.86
2018-12-20T14:02:26.950Z,102028.44
2018-12-20T14:04:55.903Z,102025.86
2018-12-20T14:07:24.791Z,102028.31
2018-12-20T14:09:53.279Z,102033.73
2018-12-20T14:12:21.920Z,102029.21
2018-12-20T14:14:50.424Z,102027.02
2018-12-20T14:17:18.844Z,102025.20
2018-12-20T14:19:47.413Z,102038.63
2018-12-20T14:22:15.935Z,102032.70
2018-12-20T14:24:44.457Z,102033.08
2018-12-20T14:27:13.486Z,102040.44
2018-12-20T14:29:41.921Z,102042.25
2018-12-20T14:32:10.350Z,102046.38
2018-12-20T14:34:39.204Z,102033.59
2018-12-20T14:37:07.712Z,102031.13
2018-12-20T14:39:43.340Z,102034.48
2018-12-20T14:42:11.850Z,102032.42
2018-12-20T14:44:40.258Z,102034.88
2018-12-20T14:47:08.892Z,102037.84
2018-12-20T14:49:37.424Z,102043.77
2018-12-20T14:52:05.832Z,102033.83
2018-12-20T14:54:35.150Z,102038.36
2018-12-20T14:57:03.677Z,102033.97
2018-12-20T14:59:32.464Z,102031.39
2018-12-20T15:02:01.156Z,102038.88
2018-12-20T15:04:29.578Z,102032.67
2018-12-20T15:06:58.016Z,102018.87
2018-12-20T15:09:26.954Z,102027.77
2018-12-20T15:11:55.831Z,102028.92
2018-12-20T15:14:24.266Z,102029.17
2018-12-20T15:16:52.744Z,102024.53
2018-12-20T15:19:21.236Z,102022.35
2018-12-20T15:21:49.641Z,102026.36
2018-12-20T15:24:18.445Z,102024.16
2018-12-20T15:26:46.982Z,102022.35
2018-12-20T15:29:15.423Z,102026.74
2018-12-20T15:31:43.933Z,102029.33
2018-12-20T15:34:12.387Z,102018.48
2018-12-20T15:36:40.787Z,102018.73
2018-12-20T15:39:09.290Z,102016.67
2018-12-20T15:41:44.480Z,102022.09
2018-12-20T15:44:13.059Z,102020.14
2018-12-20T15:46:41.595Z,102016.27
2018-12-20T15:49:10.089Z,102022.20
2018-12-20T15:51:38.960Z,102022.58
2018-12-20T15:54:07.349Z,102010.32
2018-12-20T15:56:35.820Z,102016.77
2018-12-20T15:59:04.304Z,102023.48
2018-12-20T16:01:32.716Z,102019.61
2018-12-20T16:04:01.346Z,102014.84
2018-12-20T16:06:30.167Z,102019.61
2018-12-20T16:08:58.701Z,102017.17
2018-12-20T16:11:27.332Z,102012.78
2018-12-20T16:13:55.804Z,102008.39
2018-12-20T16:16:24.198Z,102007.09
2018-12-20T16:18:52.678Z,102004.52
2018-12-20T16:21:21.291Z,102002.19
2018-12-20T16:23:49.848Z,102000.90
2018-12-20T16:26:19.281Z,101996.26
2018-12-20T16:28:47.869Z,101986.70
2018-12-20T16:31:16.294Z,102000.65
2018-12-20T16:33:44.749Z,101996.77
2018-12-20T16:36:13.451Z,101999.37
2018-12-20T16:38:41.856Z,101988.40
2018-12-20T16:41:10.384Z,101988.92
2018-12-20T16:43:39.024Z,101999.11
2018-12-20T16:46:07.422Z,101991.62
2018-12-20T16:48:35.869Z,101997.94
2018-12-20T16:51:04.587Z,101996.00
2018-12-20T16:53:32.980Z,101988.64
2018-12-20T16:56:01.432Z,101995.09
2018-12-20T16:58:29.953Z,101988.26
2018-12-20T17:00:58.471Z,101988.78
2018-12-20T17:03:26.917Z,101981.17
2018-12-20T17:05:55.877Z,101981.55
2018-12-20T17:08:24.256Z,101985.95
2018-12-20T17:10:52.697Z,101983.63
2018-12-20T17:13:21.465Z,101987.50
2018-12-20T17:15:49.986Z,101981.69
2018-12-20T17:18:18.679Z,101981.05
2018-12-20T17:20:47.298Z,101984.40
2018-12-20T17:23:15.741Z,101984.02
2018-12-20T17:25:44.197Z,101981.05
2018-12-20T17:28:13.720Z,101990.08
2018-12-20T17:30:42.490Z,101976.66
2018-12-20T17:33:10.915Z,101984.53
2018-12-20T17:35:39.751Z,101970.72
2018-12-20T17:38:08.168Z,101977.04
2018-12-20T17:40:36.589Z,101969.69
2018-12-20T17:43:05.136Z,101972.27
2018-12-20T17:45:34.314Z,101983.75
2018-12-20T17:48:02.748Z,101978.45
2018-12-20T17:50:31.500Z,101941.91
2018-12-20T17:52:59.890Z,101976.01
2018-12-20T17:55:28.384Z,101976.14
2018-12-20T17:57:56.874Z,101973.95
2018-12-20T18:00:25.382Z,101974.72
2018-12-20T18:02:53.905Z,101979.11
2018-12-20T18:05:22.561Z,101981.81
2018-12-20T18:07:50.982Z,101981.17
2018-12-20T18:10:19.536Z,101981.17
2018-12-20T18:12:48.056Z,101979.75
2018-12-20T18:15:16.857Z,101978.47
2018-12-20T18:17:45.353Z,101981.56
2018-12-20T18:20:14.237Z,101982.33
2018-12-20T18:22:42.700Z,101975.88
2018-12-20T18:25:11.218Z,101977.69
2018-12-20T18:27:39.809Z,101982.85
2018-12-20T18:30:11.009Z,101987.24
2018-12-20T18:32:39.430Z,101984.53
2018-12-20T18:35:08.329Z,101978.72
2018-12-20T18:37:36.778Z,101979.11
2018-12-20T18:40:06.659Z,101978.72
2018-12-20T18:42:35.269Z,101980.53
2018-12-20T18:45:04.057Z,101976.66
2018-12-20T18:47:32.444Z,101978.72
2018-12-20T18:50:01.243Z,101974.20
2018-12-20T18:52:29.702Z,101970.72
2018-12-20T18:54:58.077Z,101966.33
2018-12-20T18:57:27.245Z,101968.91
2018-12-20T18:59:55.672Z,101970.72
2018-12-20T19:02:26.496Z,101974.59
2018-12-20T19:04:55.223Z,101972.13
2018-12-20T19:07:29.138Z,101973.30
2018-12-20T19:09:57.774Z,101973.03
2018-12-20T19:12:26.212Z,101968.64
2018-12-20T19:14:54.906Z,101962.58
2018-12-20T19:17:23.869Z,101966.58
2018-12-20T19:19:56.204Z,101958.84
2018-12-20T19:22:22.816Z,101958.05
2018-12-20T19:24:51.536Z,101952.77
2018-12-20T19:27:19.985Z,101962.19
2018-12-20T19:29:48.412Z,101958.70
2018-12-20T19:32:17.962Z,101950.44
2018-12-20T19:34:46.460Z,101949.41
2018-12-20T19:37:14.910Z,101946.17
2018-12-20T19:39:45.427Z,101949.66
2018-12-20T19:42:16.285Z,101942.82
2018-12-20T19:44:44.936Z,101945.79
2018-12-20T19:47:13.507Z,101939.98
2018-12-20T19:49:42.004Z,101941.78
2018-12-20T19:52:10.585Z,101933.14
2018-12-20T19:54:39.070Z,101936.23
2018-12-20T19:57:07.653Z,101930.70
2018-12-20T19:59:38.744Z,101947.21
2018-12-20T20:02:06.874Z,101742.59
2018-12-20T20:04:35.710Z,101941.92
2018-12-20T20:07:04.491Z,101923.86
2018-12-20T20:09:32.984Z,101919.09
2018-12-20T20:12:01.432Z,101926.69
2018-12-20T20:14:30.139Z,101918.31
2018-12-20T20:16:58.702Z,101923.86
2018-12-20T20:19:27.572Z,101921.80
2018-12-20T20:21:56.053Z,101920.38
2018-12-20T20:24:24.467Z,101913.80
2018-12-20T20:26:52.961Z,101914.18
2018-12-20T20:29:21.621Z,101911.59
2018-12-20T20:31:50.220Z,101909.53
2018-12-20T20:34:18.960Z,101906.95
2018-12-20T20:36:47.498Z,101903.47
2018-12-20T20:39:16.750Z,101905.66
2018-12-20T20:41:45.437Z,101897.66
2018-12-20T20:44:14.000Z,101897.02
2018-12-20T20:46:42.796Z,101896.62
2018-12-20T20:49:11.404Z,101893.02
2018-12-20T20:51:40.156Z,101893.02
2018-12-20T20:54:08.562Z,101890.44
2018-12-20T20:56:37.784Z,101888.77
2018-12-20T20:59:06.477Z,101883.73
2018-12-20T21:01:34.900Z,101885.92
2018-12-20T21:04:03.961Z,101890.95
2018-12-20T21:06:33.316Z,101886.95
2018-12-20T21:09:02.065Z,101885.53
2018-12-20T21:11:30.605Z,101887.72
2018-12-20T21:14:00.721Z,101888.23
2018-12-20T21:16:29.296Z,101893.66
2018-12-20T21:18:58.414Z,101884.63
2018-12-20T21:21:26.983Z,101876.75
2018-12-20T21:23:55.377Z,101881.01
2018-12-20T21:26:23.805Z,101873.27
2018-12-20T21:28:52.540Z,101871.84
2018-12-20T21:31:20.932Z,101878.30
2018-12-20T21:33:49.348Z,101865.79
2018-12-20T21:36:18.152Z,101872.11
2018-12-20T21:38:46.641Z,101870.81
2018-12-20T21:41:15.929Z,101873.27
2018-12-20T21:43:44.501Z,101867.59
2018-12-20T21:46:13.472Z,101865.53
2018-12-20T21:48:41.941Z,101869.39
2018-12-20T21:53:54.814Z,101865.79
2018-12-20T21:56:18.681Z,101867.08
2018-12-20T21:58:47.163Z,101864.23
2018-12-20T22:01:16.072Z,101853.41
2018-12-20T22:03:44.456Z,101862.05
2018-12-20T22:06:12.920Z,101860.23
2018-12-20T22:08:48.901Z,101861.14
2018-12-20T22:11:17.280Z,101860.23
2018-12-20T22:13:45.676Z,101855.47
2018-12-20T22:16:14.200Z,101863.08
2018-12-20T22:18:42.606Z,101854.81
2018-12-20T22:21:11.193Z,101858.69
2018-12-20T22:23:39.967Z,101861.78
2018-12-20T22:26:08.688Z,101863.08
2018-12-20T22:28:37.082Z,101854.95
2018-12-20T22:31:05.621Z,101854.17
2018-12-20T22:33:34.044Z,101860.63
2018-12-20T22:36:02.580Z,101854.43
2018-12-20T22:38:31.273Z,101846.56
2018-12-20T22:40:59.649Z,101851.72
2018-12-20T22:43:28.040Z,101844.76
2018-12-20T22:45:56.595Z,101845.91
2018-12-20T22:48:24.999Z,101838.82
2018-12-20T22:50:56.059Z,101838.95
2018-12-20T22:53:23.909Z,101833.02
2018-12-20T22:55:59.041Z,101831.34
2018-12-20T22:58:27.820Z,101841.66
2018-12-20T23:00:56.477Z,101835.60
2018-12-20T23:03:24.865Z,101832.25
2018-12-20T23:05:53.431Z,101827.48
2018-12-20T23:08:21.832Z,101825.67
2018-12-20T23:10:50.240Z,101829.67
2018-12-20T23:13:19.124Z,101824.13
2018-12-20T23:15:47.825Z,101820.13
2018-12-20T23:18:16.241Z,101819.48
2018-12-20T23:20:44.857Z,101815.63
2018-12-20T23:23:13.338Z,101820.26
2018-12-20T23:25:41.813Z,101814.33
2018-12-20T23:28:10.501Z,101812.14
2018-12-20T23:30:38.875Z,101815.88
2018-12-20T23:33:07.581Z,101807.88
2018-12-20T23:35:36.719Z,101811.75
2018-12-20T23:38:05.118Z,101809.94
2018-12-20T23:40:33.819Z,101807.75
2018-12-20T23:43:02.679Z,101807.62
2018-12-20T23:45:31.056Z,101805.56
2018-12-20T23:47:59.429Z,101804.13
2018-12-20T23:50:28.366Z,101805.30
2018-12-20T23:52:56.752Z,101800.66
2018-12-20T23:55:25.207Z,101716.98
2018-12-20T23:57:54.118Z,101804.39
